Ana Sayfa
METAR-TAF:

METAR-TAF

Havaalanları :

Saipan, Mariana Adaları, Amerika Birleşik Devletleri

Enlem: 15-07N, Boylam: 145-44E, yükseklik: 66 m

Güncel hava durumu gözlemi

Rapor saat 22:54 UTC de 32 dakika önce yapıldı.
Rüzgar doğu/kuzeydoğudan 13 kt
Sıcaklık 29°C
Nem 70%
Basınç 1015 hPa
Görüş mesafesi: 16.1 km
2000 ft yükseklikte az bulutlu

METAR: PGSN 202254Z AUTO 07013KT 10SM FEW020 29/23 A2997 RMK AO2 SLP171 T02940233 TSNO $

Saat: 09:26 (23:26 UTC)

Tahmin

Rapor saat 17:33 UTC de 5 saat ve 53 dakika önce yapıldı.
Ayın 20'si saat 18 UTC'den ayın 21'si saat 18 UTC'ye kadar geçerli Tahmin
Rüzgar doğu/kuzeydoğudan 8 kt
Görüş mesafesi: 10 km
1700 ft yükseklikte az bulutlu
3000 ft yükseklikte parçalı bulutlu
Ayın 21'si saat 0100 UTC'den
Rüzgar doğudan 13 kt
Görüş mesafesi: 10 km
2200 ft yükseklikte parçalı bulutlu

TAF: PGSN 201733Z 2018/2118 07008KT P6SM FEW017 SCT030 FM210100 09013KT P6SM SCT022

4.000'den fazla havaalanı için hava durumu gözlemleri ve tahminleri (METAR ve TAF raporları).

Kullanılabilir istasyonlar harita üzerinde sarı ve kırmızı noktalarla gösterilir.

İstasyonun adını görmek için fareyi noktanın üzerinde gezdirin.

Sonrasında hava gözlem ve tahminlerini görmek için tıklayın.

Haritayı değiştirmek için: yaklaştırmak için siyah artı işaretli yeşil düğmeye ve uzaklaştırmak için de eksi işaretli düğmeye hızla tıklayın; bitişik haritalar için yeşil okları kullanın.


METAR-TAF: